Alcove, New York
Current Conditions -  °F | °C
As of 9:51 PM on Friday 31 Oct 2014 (Local Time) from KALB Reporting Station
Light Rain Light Rain  
Wind Chill: 44°   Ceiling: 4600
Heat Index: 47°   Visibility: 10mi
Dew Point: 37°   Wind: 6mph
Humidity: 68%   Direction: 350°N
Pressure: 29.97"   Gusts: NA
Location:  42.47°N, 73.93°W
Report Text: KALB 010151Z 35005KT 10SM -RA OVC046 08/03 A2997 RMK AO2 RAB44 SLP153 PCPN VRY LGT P0000 T00830028
Loading
Personal Weather Stations






























Interactive Weather Map New forecast layout! Learn more

10-Day Weather Forecast

Advertisements
Track Severe Weather on mobile